createdAt,value
2023-01-18T00:04:11.773Z,23.65
2023-01-18T00:09:13.704Z,23.63
2023-01-18T00:14:15.511Z,26.35
2023-01-18T00:19:17.417Z,21.88
2023-01-18T00:24:20.771Z,26.52
2023-01-18T00:29:22.642Z,28.20
2023-01-18T00:34:24.413Z,21.17
2023-01-18T00:39:26.176Z,26.48
2023-01-18T00:44:27.946Z,22.27
2023-01-18T00:49:29.726Z,18.75
2023-01-18T00:54:31.686Z,18.17
2023-01-18T00:59:33.488Z,21.73
2023-01-18T01:04:54.267Z,19.55
2023-01-18T01:09:57.848Z,20.95
2023-01-18T01:15:17.936Z,22.02
2023-01-18T01:20:39.091Z,17.20
2023-01-18T01:25:59.716Z,17.45
2023-01-18T01:31:03.133Z,27.20
2023-01-18T01:36:13.500Z,21.95
2023-01-18T01:41:25.364Z,19.73
2023-01-18T01:46:48.289Z,17.30
2023-01-18T01:52:02.964Z,23.27
2023-01-18T01:57:12.650Z,20.00
2023-01-18T02:02:14.697Z,12.07
2023-01-18T02:07:16.556Z,26.50
2023-01-18T02:12:19.149Z,27.58
2023-01-18T02:17:42.725Z,19.85
2023-01-18T02:23:03.116Z,20.55
2023-01-18T02:28:14.013Z,19.35
2023-01-18T02:33:25.040Z,21.70
2023-01-18T02:38:38.281Z,20.55
2023-01-18T02:44:01.780Z,21.08
2023-01-18T02:49:13.236Z,30.98
2023-01-18T02:54:24.940Z,19.80
2023-01-18T02:59:34.751Z,20.85
2023-01-18T03:04:38.681Z,17.65
2023-01-18T03:09:42.007Z,18.60
2023-01-18T03:15:13.091Z,18.52
2023-01-18T03:20:20.621Z,22.13
2023-01-18T03:25:34.819Z,18.15
2023-01-18T03:30:57.658Z,17.65
2023-01-18T03:36:00.669Z,24.85
2023-01-18T03:41:03.994Z,29.10
2023-01-18T03:46:08.073Z,34.17
2023-01-18T03:51:39.630Z,26.73
2023-01-18T03:57:01.572Z,25.00
2023-01-18T04:02:05.326Z,23.05
2023-01-18T04:07:07.141Z,23.42
2023-01-18T04:12:08.909Z,20.25
2023-01-18T04:17:10.694Z,30.58
2023-01-18T04:22:12.500Z,23.13
2023-01-18T04:27:14.290Z,15.90
2023-01-18T04:32:16.086Z,25.20
2023-01-18T04:37:17.961Z,18.98
2023-01-18T04:42:19.773Z,24.83
2023-01-18T04:47:21.964Z,17.77
2023-01-18T04:52:24.077Z,18.05
2023-01-18T04:57:26.260Z,22.15
2023-01-18T05:02:28.113Z,20.13
2023-01-18T05:07:31.266Z,21.30
2023-01-18T05:12:33.086Z,18.48
2023-01-18T05:17:35.208Z,27.13
2023-01-18T05:22:37.294Z,18.70
2023-01-18T05:27:39.118Z,19.23
2023-01-18T05:32:40.922Z,17.55
2023-01-18T05:37:42.840Z,19.63
2023-01-18T05:42:45.028Z,16.42
2023-01-18T05:47:46.863Z,24.25
2023-01-18T05:52:48.636Z,19.02
2023-01-18T05:57:50.428Z,20.25
2023-01-18T06:02:53.635Z,13.45
2023-01-18T06:07:55.451Z,20.35
2023-01-18T06:12:58.976Z,22.48
2023-01-18T06:18:00.970Z,22.65
2023-01-18T06:23:02.823Z,19.27
2023-01-18T06:28:05.286Z,20.05
2023-01-18T06:33:08.119Z,21.40
2023-01-18T06:38:11.032Z,19.60
2023-01-18T06:43:14.354Z,23.35
2023-01-18T06:48:16.303Z,20.60
2023-01-18T06:53:20.285Z,24.25
2023-01-18T06:58:22.130Z,18.38
2023-01-18T07:03:24.813Z,20.52
2023-01-18T07:08:27.475Z,24.33
2023-01-18T07:13:29.262Z,25.83
2023-01-18T07:18:31.344Z,24.23
2023-01-18T07:23:35.648Z,27.60
2023-01-18T07:28:37.667Z,24.25
2023-01-18T07:33:39.827Z,24.65
2023-01-18T07:38:41.938Z,20.75
2023-01-18T07:43:45.146Z,23.45
2023-01-18T07:48:48.312Z,25.08
2023-01-18T07:53:54.718Z,30.58
2023-01-18T07:58:56.581Z,41.72
2023-01-18T08:04:01.026Z,24.15
2023-01-18T08:09:03.240Z,22.13
2023-01-18T08:14:05.015Z,27.67
2023-01-18T08:19:06.932Z,24.77
2023-01-18T08:24:08.733Z,27.70
2023-01-18T08:29:10.588Z,24.83
2023-01-18T08:34:12.382Z,25.33
2023-01-18T08:39:15.051Z,25.25
2023-01-18T08:44:17.154Z,30.13
2023-01-18T08:49:18.966Z,26.77
2023-01-18T08:54:20.810Z,25.70
2023-01-18T08:59:23.823Z,30.58
2023-01-18T09:04:27.933Z,30.45
2023-01-18T09:09:29.747Z,23.63
2023-01-18T09:14:31.601Z,29.27
2023-01-18T09:19:33.376Z,31.52
2023-01-18T09:24:36.963Z,36.40
2023-01-18T09:29:38.786Z,32.50
2023-01-18T09:34:41.098Z,31.83
2023-01-18T09:39:51.496Z,29.58
2023-01-18T09:44:59.944Z,26.98
2023-01-18T09:50:13.250Z,33.42
2023-01-18T09:55:36.589Z,26.15
2023-01-18T10:00:44.194Z,30.77
2023-01-18T10:06:09.065Z,25.63
2023-01-18T10:11:19.532Z,26.30
2023-01-18T10:16:21.414Z,18.08
2023-01-18T10:21:42.385Z,29.27
2023-01-18T10:26:45.162Z,21.65
2023-01-18T10:31:58.711Z,28.63
2023-01-18T10:37:15.435Z,24.75
2023-01-18T10:42:24.054Z,30.83
2023-01-18T10:47:25.906Z,22.67
2023-01-18T10:52:30.498Z,20.65
2023-01-18T10:57:36.980Z,26.63
2023-01-18T11:02:39.727Z,17.77
2023-01-18T11:07:41.619Z,22.05
2023-01-18T11:12:52.100Z,16.35
2023-01-18T11:18:00.705Z,13.13
2023-01-18T11:23:04.401Z,18.45
2023-01-18T11:28:17.749Z,16.40
2023-01-18T11:33:22.153Z,13.38
2023-01-18T11:38:34.644Z,18.30
2023-01-18T11:43:39.481Z,15.00
2023-01-18T11:48:52.731Z,13.65
2023-01-18T11:54:16.237Z,12.50
2023-01-18T11:59:30.353Z,18.17
2023-01-18T12:05:07.755Z,13.32
2023-01-18T12:10:20.372Z,9.95
2023-01-18T12:15:31.300Z,8.43
2023-01-18T12:20:52.001Z,8.25
2023-01-18T12:31:45.150Z,6.93
2023-01-18T12:37:24.807Z,8.52
2023-01-18T12:42:45.989Z,10.38
2023-01-18T12:48:11.137Z,4.40
2023-01-18T12:54:02.970Z,4.15
2023-01-18T12:59:42.833Z,7.97
2023-01-18T13:04:49.806Z,7.33
2023-01-18T13:09:52.307Z,4.72
2023-01-18T13:15:14.044Z,7.50
2023-01-18T13:20:28.791Z,6.38
2023-01-18T13:25:33.348Z,5.63
2023-01-18T13:30:55.037Z,6.50
2023-01-18T13:36:01.875Z,5.55
2023-01-18T13:41:12.711Z,4.30
2023-01-18T13:46:14.492Z,6.95
2023-01-18T13:51:41.362Z,6.07
2023-01-18T13:57:05.906Z,5.60
2023-01-18T14:02:41.882Z,8.75
2023-01-18T14:07:53.175Z,4.68
2023-01-18T14:12:57.024Z,8.48
2023-01-18T14:17:59.538Z,14.55
2023-01-18T14:23:17.213Z,4.22
2023-01-18T14:28:30.725Z,10.27
2023-01-18T14:33:33.998Z,9.30
2023-01-18T14:38:36.617Z,7.35
2023-01-18T14:43:44.377Z,4.40
2023-01-18T14:48:54.809Z,11.20
2023-01-18T14:54:03.952Z,6.88
2023-01-18T14:59:27.543Z,5.88
2023-01-18T15:04:35.367Z,8.35
2023-01-18T15:09:39.546Z,11.27
2023-01-18T15:14:48.325Z,10.38
2023-01-18T15:19:53.782Z,7.28
2023-01-18T15:24:57.770Z,10.23
2023-01-18T15:30:01.762Z,10.52
2023-01-18T15:35:04.580Z,11.07
2023-01-18T15:40:15.479Z,8.95
2023-01-18T15:45:20.702Z,7.80
2023-01-18T15:50:26.479Z,12.88
2023-01-18T15:55:40.000Z,7.78
2023-01-18T16:00:54.880Z,13.48
2023-01-18T16:06:11.048Z,6.72
2023-01-18T16:11:30.920Z,9.68
2023-01-18T16:16:39.278Z,7.67
2023-01-18T16:21:44.554Z,13.68
2023-01-18T16:26:46.908Z,11.70
2023-01-18T16:31:48.702Z,11.13
2023-01-18T16:36:51.618Z,10.98
2023-01-18T16:41:57.032Z,14.52
2023-01-18T16:46:59.269Z,15.27
2023-01-18T16:52:01.002Z,11.60
2023-01-18T16:57:02.748Z,16.98
2023-01-18T17:02:04.618Z,13.25
2023-01-18T17:07:09.272Z,16.52
2023-01-18T17:12:11.021Z,13.82
2023-01-18T17:17:12.823Z,12.80
2023-01-18T17:22:15.103Z,11.18
2023-01-18T17:27:16.863Z,13.10
2023-01-18T17:32:18.802Z,13.50
2023-01-18T17:37:20.545Z,12.07
2023-01-18T17:42:29.987Z,13.98
2023-01-18T17:47:34.763Z,8.03
2023-01-18T17:52:38.685Z,13.77
2023-01-18T17:57:40.868Z,14.05
2023-01-18T18:02:43.044Z,15.73
2023-01-18T18:07:45.160Z,16.85
2023-01-18T18:12:47.044Z,16.05
2023-01-18T18:17:48.948Z,15.48
2023-01-18T18:22:50.858Z,19.42
2023-01-18T18:27:52.690Z,16.65
2023-01-18T18:32:54.610Z,21.88
2023-01-18T18:37:57.229Z,13.07
2023-01-18T18:43:03.210Z,14.32
2023-01-18T18:48:05.949Z,14.45
2023-01-18T18:53:08.008Z,17.40
2023-01-18T18:58:10.386Z,15.05
2023-01-18T19:03:12.433Z,13.23
2023-01-18T19:08:14.323Z,12.38
2023-01-18T19:13:16.699Z,12.80
2023-01-18T19:18:18.639Z,13.23
2023-01-18T19:23:21.111Z,17.05
2023-01-18T19:28:23.493Z,15.73
2023-01-18T19:33:25.478Z,14.02
2023-01-18T19:38:27.493Z,10.35
2023-01-18T19:43:29.556Z,18.85
2023-01-18T19:48:32.847Z,14.07
2023-01-18T19:53:34.760Z,13.93
2023-01-18T19:58:37.644Z,14.27
2023-01-18T20:03:40.177Z,20.75
2023-01-18T20:08:42.530Z,16.00
2023-01-18T20:13:49.682Z,22.90
2023-01-18T20:18:51.470Z,20.42
2023-01-18T20:23:56.221Z,21.13
2023-01-18T20:28:58.511Z,16.30
2023-01-18T20:34:00.734Z,22.85
2023-01-18T20:39:04.036Z,18.55
2023-01-18T20:44:06.138Z,18.75
2023-01-18T20:49:08.622Z,27.27
2023-01-18T20:54:11.082Z,20.48
2023-01-18T20:59:12.886Z,21.27
2023-01-18T21:04:14.698Z,14.35
2023-01-18T21:09:16.788Z,16.23
2023-01-18T21:14:18.698Z,22.75
2023-01-18T21:19:23.806Z,19.13
2023-01-18T21:24:25.720Z,24.13
2023-01-18T21:29:27.538Z,17.02
2023-01-18T21:34:29.348Z,17.92
2023-01-18T21:39:31.248Z,16.83
2023-01-18T21:44:51.490Z,17.80
2023-01-18T21:50:17.598Z,17.20
2023-01-18T21:55:20.665Z,17.60
2023-01-18T22:00:22.696Z,21.80
2023-01-18T22:05:24.727Z,20.05
2023-01-18T22:10:27.879Z,23.92
2023-01-18T22:15:29.739Z,20.83
2023-01-18T22:20:31.839Z,20.25
2023-01-18T22:25:33.711Z,18.83
2023-01-18T22:30:35.657Z,20.33
2023-01-18T22:35:37.868Z,17.52
2023-01-18T22:40:40.250Z,25.02
2023-01-18T22:45:42.040Z,20.40
2023-01-18T22:50:50.967Z,20.98
2023-01-18T22:55:52.925Z,24.88
2023-01-18T23:00:54.789Z,25.98
2023-01-18T23:06:00.671Z,21.20
2023-01-18T23:11:02.455Z,19.75
2023-01-18T23:16:27.344Z,21.92
2023-01-18T23:21:29.080Z,26.17
2023-01-18T23:26:30.896Z,21.38
2023-01-18T23:31:32.960Z,20.48
2023-01-18T23:36:34.952Z,21.02
2023-01-18T23:41:55.206Z,23.92
2023-01-18T23:47:15.718Z,17.13
2023-01-18T23:52:36.301Z,18.70
2023-01-18T23:57:38.281Z,20.85
